sensor_id;sensor_type;location;lat;lon;timestamp;pressure;altitude;pressure_sealevel;temperature;humidity
6132;BME280;3097;42.692;23.278;2022-12-07T00:01:16;94972.06;;;7.51;95.30
6132;BME280;3097;42.692;23.278;2022-12-07T00:03:44;94996.88;;;7.70;95.34
6132;BME280;3097;42.692;23.278;2022-12-07T00:06:11;94999.84;;;7.67;95.02
6132;BME280;3097;42.692;23.278;2022-12-07T00:08:37;94992.34;;;7.65;95.00
6132;BME280;3097;42.692;23.278;2022-12-07T00:11:04;94992.56;;;7.51;95.35
6132;BME280;3097;42.692;23.278;2022-12-07T00:13:31;94997.25;;;7.67;95.14
6132;BME280;3097;42.692;23.278;2022-12-07T00:16:03;94970.47;;;7.50;95.27
6132;BME280;3097;42.692;23.278;2022-12-07T00:18:29;94989.81;;;7.59;95.19
6132;BME280;3097;42.692;23.278;2022-12-07T00:21:21;94991.56;;;7.65;95.40
6132;BME280;3097;42.692;23.278;2022-12-07T00:23:45;95001.63;;;7.60;95.43
6132;BME280;3097;42.692;23.278;2022-12-07T00:26:21;94996.28;;;7.61;95.54
6132;BME280;3097;42.692;23.278;2022-12-07T00:28:52;94999.84;;;7.60;95.63
6132;BME280;3097;42.692;23.278;2022-12-07T00:31:20;95002.22;;;7.62;95.39
6132;BME280;3097;42.692;23.278;2022-12-07T00:33:46;94995.69;;;7.59;95.30
6132;BME280;3097;42.692;23.278;2022-12-07T00:36:14;94996.69;;;7.65;95.33
6132;BME280;3097;42.692;23.278;2022-12-07T00:38:40;94984.09;;;7.50;95.68
6132;BME280;3097;42.692;23.278;2022-12-07T00:41:11;95011.28;;;7.71;95.63
6132;BME280;3097;42.692;23.278;2022-12-07T00:43:37;94999.28;;;7.58;95.64
6132;BME280;3097;42.692;23.278;2022-12-07T00:46:04;94994.34;;;7.57;95.53
6132;BME280;3097;42.692;23.278;2022-12-07T00:48:29;95001.25;;;7.50;95.73
6132;BME280;3097;42.692;23.278;2022-12-07T00:50:55;94993.56;;;7.56;95.74
6132;BME280;3097;42.692;23.278;2022-12-07T00:53:21;94993.13;;;7.59;95.86
6132;BME280;3097;42.692;23.278;2022-12-07T00:55:47;94994.53;;;7.55;96.01
6132;BME280;3097;42.692;23.278;2022-12-07T00:58:12;94994.34;;;7.57;95.91
6132;BME280;3097;42.692;23.278;2022-12-07T01:00:39;94991.97;;;7.49;95.91
6132;BME280;3097;42.692;23.278;2022-12-07T01:03:08;94988.81;;;7.47;95.99
6132;BME280;3097;42.692;23.278;2022-12-07T01:05:34;94967.53;;;7.33;95.91
6132;BME280;3097;42.692;23.278;2022-12-07T01:07:59;94984.66;;;7.46;96.02
6132;BME280;3097;42.692;23.278;2022-12-07T01:10:27;94988.81;;;7.47;96.38
6132;BME280;3097;42.692;23.278;2022-12-07T01:12:53;94981.53;;;7.44;96.72
6132;BME280;3097;42.692;23.278;2022-12-07T01:15:18;94984.66;;;7.52;96.64
6132;BME280;3097;42.692;23.278;2022-12-07T01:17:44;94981.13;;;7.47;96.23
6132;BME280;3097;42.692;23.278;2022-12-07T01:20:10;94982.31;;;7.51;96.28
6132;BME280;3097;42.692;23.278;2022-12-07T01:22:37;94979.75;;;7.51;96.28
6132;BME280;3097;42.692;23.278;2022-12-07T01:25:04;94972.06;;;7.51;96.47
6132;BME280;3097;42.692;23.278;2022-12-07T01:27:29;94974.22;;;7.54;96.19
6132;BME280;3097;42.692;23.278;2022-12-07T01:29:54;94971.84;;;7.46;96.37
6132;BME280;3097;42.692;23.278;2022-12-07T01:32:20;94973.44;;;7.47;96.26
6132;BME280;3097;42.692;23.278;2022-12-07T01:34:47;94972.06;;;7.51;95.67
6132;BME280;3097;42.692;23.278;2022-12-07T01:37:13;94965.34;;;7.50;95.77
6132;BME280;3097;42.692;23.278;2022-12-07T01:39:39;94972.44;;;7.41;95.72
6132;BME280;3097;42.692;23.278;2022-12-07T01:42:04;94971.47;;;7.35;96.45
6132;BME280;3097;42.692;23.278;2022-12-07T01:44:30;94977.59;;;7.41;96.48
6132;BME280;3097;42.692;23.278;2022-12-07T01:46:59;94966.75;;;7.32;96.34
6132;BME280;3097;42.692;23.278;2022-12-07T01:49:32;94965.56;;;7.42;96.52
6132;BME280;3097;42.692;23.278;2022-12-07T01:54:46;94956.88;;;7.36;96.61
6132;BME280;3097;42.692;23.278;2022-12-07T01:57:14;94931.63;;;7.26;96.62
6132;BME280;3097;42.692;23.278;2022-12-07T01:59:41;94952.31;;;7.45;96.59
6132;BME280;3097;42.692;23.278;2022-12-07T02:02:13;94946.41;;;7.37;96.61
6132;BME280;3097;42.692;23.278;2022-12-07T02:04:39;94950.16;;;7.42;96.89
6132;BME280;3097;42.692;23.278;2022-12-07T02:07:05;94959.03;;;7.39;96.63
6132;BME280;3097;42.692;23.278;2022-12-07T02:09:30;94945.25;;;7.33;96.79
6132;BME280;3097;42.692;23.278;2022-12-07T02:11:56;94954.31;;;7.43;96.79
6132;BME280;3097;42.692;23.278;2022-12-07T02:14:22;94954.50;;;7.48;96.58
6132;BME280;3097;42.692;23.278;2022-12-07T02:17:18;94955.88;;;7.50;96.76
6132;BME280;3097;42.692;23.278;2022-12-07T02:31:06;94913.09;;;7.31;96.73
6132;BME280;3097;42.692;23.278;2022-12-07T02:33:36;94941.88;;;7.39;96.88
6132;BME280;3097;42.692;23.278;2022-12-07T02:36:08;94943.63;;;7.46;96.80
6132;BME280;3097;42.692;23.278;2022-12-07T02:41:06;94936.16;;;7.31;96.13
6132;BME280;3097;42.692;23.278;2022-12-07T02:43:41;94939.72;;;7.30;96.11
6132;BME280;3097;42.692;23.278;2022-12-07T02:46:13;94934.78;;;7.35;96.21
6132;BME280;3097;42.692;23.278;2022-12-07T02:48:40;94938.34;;;7.34;96.11
6132;BME280;3097;42.692;23.278;2022-12-07T02:51:06;94931.63;;;7.26;96.27
6132;BME280;3097;42.692;23.278;2022-12-07T02:53:42;94928.47;;;7.24;96.08
6132;BME280;3097;42.692;23.278;2022-12-07T03:03:57;94919.03;;;7.12;96.12
6132;BME280;3097;42.692;23.278;2022-12-07T03:06:36;94921.00;;;7.10;96.33
6132;BME280;3097;42.692;23.278;2022-12-07T03:09:15;94915.88;;;7.03;96.16
6132;BME280;3097;42.692;23.278;2022-12-07T03:11:48;94883.75;;;6.81;96.06
6132;BME280;3097;42.692;23.278;2022-12-07T03:14:25;94914.31;;;6.95;96.26
6132;BME280;3097;42.692;23.278;2022-12-07T03:17:08;94922.97;;;6.88;96.08
6132;BME280;3097;42.692;23.278;2022-12-07T03:19:36;94903.47;;;6.74;96.59
6132;BME280;3097;42.692;23.278;2022-12-07T03:22:24;94917.25;;;6.79;97.07
6132;BME280;3097;42.692;23.278;2022-12-07T03:24:55;94916.09;;;6.69;97.03
6132;BME280;3097;42.692;23.278;2022-12-07T03:27:30;94918.59;;;6.55;97.51
6132;BME280;3097;42.692;23.278;2022-12-07T03:30:04;94918.66;;;6.69;97.44
6132;BME280;3097;42.692;23.278;2022-12-07T03:32:37;94925.72;;;6.67;97.16
6132;BME280;3097;42.692;23.278;2022-12-07T03:35:27;94924.75;;;6.68;97.39
6132;BME280;3097;42.692;23.278;2022-12-07T03:37:56;94928.47;;;6.72;97.57
6132;BME280;3097;42.692;23.278;2022-12-07T03:40:46;94914.69;;;6.73;97.97
6132;BME280;3097;42.692;23.278;2022-12-07T03:43:15;94903.25;;;6.55;98.02
6132;BME280;3097;42.692;23.278;2022-12-07T03:45:43;94917.44;;;6.78;97.90
6132;BME280;3097;42.692;23.278;2022-12-07T03:48:25;94926.94;;;6.84;97.18
6132;BME280;3097;42.692;23.278;2022-12-07T03:51:01;94910.75;;;6.70;96.83
6132;BME280;3097;42.692;23.278;2022-12-07T03:54:00;94916.66;;;6.71;96.83
6132;BME280;3097;42.692;23.278;2022-12-07T03:56:28;94914.69;;;6.73;97.11
6132;BME280;3097;42.692;23.278;2022-12-07T03:58:54;94911.34;;;6.72;97.29
6132;BME280;3097;42.692;23.278;2022-12-07T04:01:20;94913.72;;;6.74;97.61
6132;BME280;3097;42.692;23.278;2022-12-07T04:03:45;94913.53;;;6.82;97.10
6132;BME280;3097;42.692;23.278;2022-12-07T04:06:11;94903.66;;;6.79;97.30
6132;BME280;3097;42.692;23.278;2022-12-07T04:08:36;94906.81;;;6.81;97.12
6132;BME280;3097;42.692;23.278;2022-12-07T04:11:02;94913.91;;;6.79;97.45
6132;BME280;3097;42.692;23.278;2022-12-07T04:13:27;94903.66;;;6.79;97.01
6132;BME280;3097;42.692;23.278;2022-12-07T04:15:53;94911.53;;;6.71;96.72
6132;BME280;3097;42.692;23.278;2022-12-07T04:18:18;94881.59;;;6.58;97.06
6132;BME280;3097;42.692;23.278;2022-12-07T04:20:45;94873.72;;;6.59;97.00
6132;BME280;3097;42.692;23.278;2022-12-07T04:23:11;94903.84;;;6.71;97.05
6132;BME280;3097;42.692;23.278;2022-12-07T04:25:36;94912.72;;;6.75;96.85
6132;BME280;3097;42.692;23.278;2022-12-07T04:28:02;94905.63;;;6.77;96.92
6132;BME280;3097;42.692;23.278;2022-12-07T04:30:27;94914.69;;;6.79;96.69
6132;BME280;3097;42.692;23.278;2022-12-07T04:32:53;94900.69;;;6.62;96.92
6132;BME280;3097;42.692;23.278;2022-12-07T04:35:19;94898.53;;;6.66;96.70
6132;BME280;3097;42.692;23.278;2022-12-07T04:37:44;94906.03;;;6.60;96.58
6132;BME280;3097;42.692;23.278;2022-12-07T04:40:10;94908.78;;;6.66;96.92
6132;BME280;3097;42.692;23.278;2022-12-07T04:42:37;94910.75;;;6.64;96.67
6132;BME280;3097;42.692;23.278;2022-12-07T04:45:02;94916.66;;;6.71;96.68
6132;BME280;3097;42.692;23.278;2022-12-07T04:47:28;94923.16;;;6.67;97.03
6132;BME280;3097;42.692;23.278;2022-12-07T04:49:54;94921.78;;;6.64;97.05
6132;BME280;3097;42.692;23.278;2022-12-07T04:52:20;94923.16;;;6.60;96.84
6132;BME280;3097;42.692;23.278;2022-12-07T04:54:45;94925.50;;;6.48;97.11
6132;BME280;3097;42.692;23.278;2022-12-07T04:57:11;94923.16;;;6.60;97.10
6132;BME280;3097;42.692;23.278;2022-12-07T04:59:36;94921.97;;;6.63;96.63
6132;BME280;3097;42.692;23.278;2022-12-07T05:02:02;94931.63;;;6.60;96.22
6132;BME280;3097;42.692;23.278;2022-12-07T05:04:28;94920.59;;;6.60;96.20
6132;BME280;3097;42.692;23.278;2022-12-07T05:06:53;94909.94;;;6.43;96.38
6132;BME280;3097;42.692;23.278;2022-12-07T05:09:19;94910.91;;;6.42;96.57
6132;BME280;3097;42.692;23.278;2022-12-07T05:11:44;94920.97;;;6.50;96.74
6132;BME280;3097;42.692;23.278;2022-12-07T05:14:18;94920.19;;;6.50;97.02
6132;BME280;3097;42.692;23.278;2022-12-07T05:16:45;94920.56;;;6.47;97.36
6132;BME280;3097;42.692;23.278;2022-12-07T05:19:12;94925.69;;;6.47;97.26
6132;BME280;3097;42.692;23.278;2022-12-07T05:21:38;94926.28;;;6.49;96.77
6132;BME280;3097;42.692;23.278;2022-12-07T05:24:05;94904.00;;;6.23;96.51
6132;BME280;3097;42.692;23.278;2022-12-07T05:26:31;94927.66;;;6.38;96.81
6132;BME280;3097;42.692;23.278;2022-12-07T05:28:56;94917.41;;;6.38;96.69
6132;BME280;3097;42.692;23.278;2022-12-07T05:31:24;94910.09;;;6.29;96.91
6132;BME280;3097;42.692;23.278;2022-12-07T05:33:50;94922.31;;;6.40;97.06
6132;BME280;3097;42.692;23.278;2022-12-07T05:36:16;94914.63;;;6.33;97.54
6132;BME280;3097;42.692;23.278;2022-12-07T05:38:41;94920.53;;;6.34;97.65
6132;BME280;3097;42.692;23.278;2022-12-07T05:41:08;94917.00;;;6.41;97.51
6132;BME280;3097;42.692;23.278;2022-12-07T05:43:54;94904.38;;;6.27;96.92
6132;BME280;3097;42.692;23.278;2022-12-07T05:46:20;94912.84;;;6.34;97.52
6132;BME280;3097;42.692;23.278;2022-12-07T05:48:45;94870.47;;;6.11;97.79
6132;BME280;3097;42.692;23.278;2022-12-07T05:51:11;94904.03;;;6.43;97.07
6132;BME280;3097;42.692;23.278;2022-12-07T05:53:36;94904.19;;;6.35;97.65
6132;BME280;3097;42.692;23.278;2022-12-07T05:56:02;94902.44;;;6.42;97.59
6132;BME280;3097;42.692;23.278;2022-12-07T05:58:27;94904.63;;;6.45;97.75
6132;BME280;3097;42.692;23.278;2022-12-07T06:01:11;94909.56;;;6.46;97.37
6132;BME280;3097;42.692;23.278;2022-12-07T06:03:36;94907.97;;;6.45;97.57
6132;BME280;3097;42.692;23.278;2022-12-07T06:06:02;94904.03;;;6.49;97.91
6132;BME280;3097;42.692;23.278;2022-12-07T06:08:27;94890.22;;;6.37;97.97
6132;BME280;3097;42.692;23.278;2022-12-07T06:10:53;94905.41;;;6.39;98.47
6132;BME280;3097;42.692;23.278;2022-12-07T06:13:38;94920.19;;;6.50;98.30
6132;BME280;3097;42.692;23.278;2022-12-07T06:16:04;94917.44;;;6.51;98.15
6132;BME280;3097;42.692;23.278;2022-12-07T06:18:29;94919.00;;;6.52;98.18
6132;BME280;3097;42.692;23.278;2022-12-07T06:20:55;94896.53;;;6.41;97.84
6132;BME280;3097;42.692;23.278;2022-12-07T06:23:20;94911.94;;;6.61;98.06
6132;BME280;3097;42.692;23.278;2022-12-07T06:25:46;94919.03;;;6.66;97.79
6132;BME280;3097;42.692;23.278;2022-12-07T06:28:11;94918.84;;;6.74;97.67
6132;BME280;3097;42.692;23.278;2022-12-07T06:30:36;94916.88;;;6.76;97.30
6132;BME280;3097;42.692;23.278;2022-12-07T06:33:02;94921.00;;;6.77;97.35
6132;BME280;3097;42.692;23.278;2022-12-07T06:35:27;94918.66;;;6.69;97.45
6132;BME280;3097;42.692;23.278;2022-12-07T06:37:53;94917.25;;;6.73;96.75
6132;BME280;3097;42.692;23.278;2022-12-07T06:40:18;94917.84;;;6.75;96.87
6132;BME280;3097;42.692;23.278;2022-12-07T06:42:44;94939.34;;;6.87;96.93
6132;BME280;3097;42.692;23.278;2022-12-07T06:45:09;94930.66;;;6.88;96.83
6132;BME280;3097;42.692;23.278;2022-12-07T06:47:35;94929.69;;;6.89;96.82
6132;BME280;3097;42.692;23.278;2022-12-07T06:50:00;94938.34;;;6.94;97.16
6132;BME280;3097;42.692;23.278;2022-12-07T06:52:26;94933.63;;;6.98;96.74
6132;BME280;3097;42.692;23.278;2022-12-07T06:54:51;94913.91;;;6.85;97.01
6132;BME280;3097;42.692;23.278;2022-12-07T06:57:17;94935.59;;;7.03;97.11
6132;BME280;3097;42.692;23.278;2022-12-07T06:59:43;94940.34;;;7.12;96.59
6132;BME280;3097;42.692;23.278;2022-12-07T07:02:09;94945.25;;;7.20;96.23
6132;BME280;3097;42.692;23.278;2022-12-07T07:04:35;94938.56;;;7.19;96.04
6132;BME280;3097;42.692;23.278;2022-12-07T07:07:00;94938.34;;;7.21;96.45
6132;BME280;3097;42.692;23.278;2022-12-07T07:09:26;94944.28;;;7.21;96.41
6132;BME280;3097;42.692;23.278;2022-12-07T07:11:51;94941.91;;;7.26;96.05
6132;BME280;3097;42.692;23.278;2022-12-07T07:14:16;94947.41;;;7.30;96.17
6132;BME280;3097;42.692;23.278;2022-12-07T07:16:44;94863.06;;;6.76;96.50
6132;BME280;3097;42.692;23.278;2022-12-07T07:19:09;94909.94;;;7.16;96.55
6132;BME280;3097;42.692;23.278;2022-12-07T07:21:36;94920.59;;;7.32;96.72
6132;BME280;3097;42.692;23.278;2022-12-07T07:24:02;94935.94;;;7.46;96.32
6132;BME280;3097;42.692;23.278;2022-12-07T07:26:27;94939.50;;;7.51;95.95
6132;BME280;3097;42.692;23.278;2022-12-07T07:28:52;94938.28;;;7.54;95.76
6132;BME280;3097;42.692;23.278;2022-12-07T07:31:18;94935.72;;;7.54;95.93
6132;BME280;3097;42.692;23.278;2022-12-07T07:33:45;94931.59;;;7.53;96.03
6132;BME280;3097;42.692;23.278;2022-12-07T07:36:11;94947.16;;;7.64;95.41
6132;BME280;3097;42.692;23.278;2022-12-07T07:38:37;94913.47;;;7.48;95.96
6132;BME280;3097;42.692;23.278;2022-12-07T07:41:02;94941.41;;;7.75;96.00
6132;BME280;3097;42.692;23.278;2022-12-07T07:43:28;94945.34;;;7.78;95.97
6132;BME280;3097;42.692;23.278;2022-12-07T07:45:54;94918.47;;;7.87;95.65
6132;BME280;3097;42.692;23.278;2022-12-07T07:48:19;94926.34;;;7.92;95.56
6132;BME280;3097;42.692;23.278;2022-12-07T07:50:45;94943.03;;;8.14;94.85
6132;BME280;3097;42.692;23.278;2022-12-07T07:53:10;94934.53;;;8.21;94.35
6132;BME280;3097;42.692;23.278;2022-12-07T07:55:35;94938.44;;;8.30;93.70
6132;BME280;3097;42.692;23.278;2022-12-07T07:58:01;94930.94;;;8.28;93.69
6132;BME280;3097;42.692;23.278;2022-12-07T08:00:26;94934.28;;;8.42;93.14
6132;BME280;3097;42.692;23.278;2022-12-07T08:02:52;94931.72;;;8.42;93.00
6132;BME280;3097;42.692;23.278;2022-12-07T08:05:17;94927.38;;;8.36;92.47
6132;BME280;3097;42.692;23.278;2022-12-07T08:07:43;94938.69;;;8.60;92.51
6132;BME280;3097;42.692;23.278;2022-12-07T08:10:11;94940.09;;;8.62;92.47
6132;BME280;3097;42.692;23.278;2022-12-07T08:12:39;94926.28;;;8.57;91.55
6132;BME280;3097;42.692;23.278;2022-12-07T08:15:29;94927.84;;;8.58;92.16
6132;BME280;3097;42.692;23.278;2022-12-07T08:17:55;94936.56;;;8.57;92.46
6132;BME280;3097;42.692;23.278;2022-12-07T08:20:21;94930.19;;;8.59;92.41
6132;BME280;3097;42.692;23.278;2022-12-07T08:22:47;94932.91;;;8.71;92.08
6132;BME280;3097;42.692;23.278;2022-12-07T08:25:12;94936.63;;;8.75;91.08
6132;BME280;3097;42.692;23.278;2022-12-07T08:27:38;94941.78;;;8.75;90.38
6132;BME280;3097;42.692;23.278;2022-12-07T08:30:03;94931.91;;;8.72;90.00
6132;BME280;3097;42.692;23.278;2022-12-07T08:32:29;94935.94;;;8.61;89.08
6132;BME280;3097;42.692;23.278;2022-12-07T08:34:55;94946.41;;;8.60;89.83
6132;BME280;3097;42.692;23.278;2022-12-07T08:37:20;94937.94;;;8.52;90.43
6132;BME280;3097;42.692;23.278;2022-12-07T08:39:45;94938.78;;;8.46;89.43
6132;BME280;3097;42.692;23.278;2022-12-07T08:42:11;94924.41;;;8.39;90.55
6132;BME280;3097;42.692;23.278;2022-12-07T08:44:36;94934.03;;;8.43;91.07
6132;BME280;3097;42.692;23.278;2022-12-07T08:47:05;94925.00;;;8.41;90.23
6132;BME280;3097;42.692;23.278;2022-12-07T08:49:39;94927.72;;;8.46;90.31
6132;BME280;3097;42.692;23.278;2022-12-07T08:52:05;94920.81;;;8.46;90.84
6132;BME280;3097;42.692;23.278;2022-12-07T08:54:33;94922.75;;;8.51;91.20
6132;BME280;3097;42.692;23.278;2022-12-07T08:57:01;94919.78;;;8.54;90.48
6132;BME280;3097;42.692;23.278;2022-12-07T08:59:27;94917.34;;;8.59;90.09
6132;BME280;3097;42.692;23.278;2022-12-07T09:01:53;94912.41;;;8.58;90.79
6132;BME280;3097;42.692;23.278;2022-12-07T09:04:19;94913.41;;;8.63;91.27
6132;BME280;3097;42.692;23.278;2022-12-07T09:06:46;94907.47;;;8.63;89.89
6132;BME280;3097;42.692;23.278;2022-12-07T09:09:13;94898.59;;;8.59;90.50
6132;BME280;3097;42.692;23.278;2022-12-07T09:11:39;94901.84;;;8.72;90.87
6132;BME280;3097;42.692;23.278;2022-12-07T09:14:05;94897.28;;;8.74;90.61
6132;BME280;3097;42.692;23.278;2022-12-07T09:16:30;94896.69;;;8.79;90.39
6132;BME280;3097;42.692;23.278;2022-12-07T09:18:56;94897.41;;;8.86;90.02
6132;BME280;3097;42.692;23.278;2022-12-07T09:21:21;94897.78;;;8.89;90.38
6132;BME280;3097;42.692;23.278;2022-12-07T09:23:47;94903.84;;;8.95;90.66
6132;BME280;3097;42.692;23.278;2022-12-07T09:26:12;94884.06;;;8.96;90.61
6132;BME280;3097;42.692;23.278;2022-12-07T09:28:38;94900.97;;;9.10;90.24
6132;BME280;3097;42.692;23.278;2022-12-07T09:31:04;94887.69;;;9.13;90.22
6132;BME280;3097;42.692;23.278;2022-12-07T09:33:30;94890.53;;;9.05;87.90
6132;BME280;3097;42.692;23.278;2022-12-07T09:35:55;94869.81;;;9.00;88.41
6132;BME280;3097;42.692;23.278;2022-12-07T09:38:21;94883.41;;;9.07;89.26
6132;BME280;3097;42.692;23.278;2022-12-07T09:40:47;94842.22;;;8.88;87.95
6132;BME280;3097;42.692;23.278;2022-12-07T09:43:22;94869.16;;;9.04;89.19
6132;BME280;3097;42.692;23.278;2022-12-07T09:45:51;94863.19;;;9.10;88.31
6132;BME280;3097;42.692;23.278;2022-12-07T09:48:21;94871.28;;;9.14;88.83
6132;BME280;3097;42.692;23.278;2022-12-07T09:50:48;94860.84;;;9.09;88.80
6132;BME280;3097;42.692;23.278;2022-12-07T09:53:37;94867.44;;;9.23;88.07
6132;BME280;3097;42.692;23.278;2022-12-07T09:56:04;94852.34;;;9.26;87.20
6132;BME280;3097;42.692;23.278;2022-12-07T09:58:31;94862.78;;;9.31;87.21
6132;BME280;3097;42.692;23.278;2022-12-07T10:01:01;94862.56;;;9.33;86.51
6132;BME280;3097;42.692;23.278;2022-12-07T10:03:30;94863.88;;;9.24;87.35
6132;BME280;3097;42.692;23.278;2022-12-07T10:05:56;94858.53;;;9.19;87.56
6132;BME280;3097;42.692;23.278;2022-12-07T10:08:22;94837.44;;;9.17;87.82
6132;BME280;3097;42.692;23.278;2022-12-07T10:10:53;94849.00;;;9.44;87.26
6132;BME280;3097;42.692;23.278;2022-12-07T10:13:44;94818.28;;;9.31;86.62
6132;BME280;3097;42.692;23.278;2022-12-07T10:18:49;94827.06;;;9.60;87.00
6132;BME280;3097;42.692;23.278;2022-12-07T10:21:20;94824.91;;;9.75;86.87
6132;BME280;3097;42.692;23.278;2022-12-07T10:24:13;94826.38;;;9.83;86.29
6132;BME280;3097;42.692;23.278;2022-12-07T10:26:50;94821.38;;;9.88;84.72
6132;BME280;3097;42.692;23.278;2022-12-07T10:31:56;94801.34;;;9.90;85.08
6132;BME280;3097;42.692;23.278;2022-12-07T10:34:34;94802.47;;;9.94;86.04
6132;BME280;3097;42.692;23.278;2022-12-07T10:39:55;94803.84;;;10.08;84.63
6132;BME280;3097;42.692;23.278;2022-12-07T10:42:28;94810.47;;;10.16;83.18
6132;BME280;3097;42.692;23.278;2022-12-07T10:45:17;94800.84;;;10.11;82.48
6132;BME280;3097;42.692;23.278;2022-12-07T10:47:55;94798.16;;;10.06;83.08
6132;BME280;3097;42.692;23.278;2022-12-07T10:53:15;94791.56;;;10.10;84.25
6132;BME280;3097;42.692;23.278;2022-12-07T11:01:35;94772.03;;;10.21;83.23
6132;BME280;3097;42.692;23.278;2022-12-07T11:04:17;94771.03;;;10.33;82.47
6132;BME280;3097;42.692;23.278;2022-12-07T11:07:00;94774.19;;;10.35;82.67
6132;BME280;3097;42.692;23.278;2022-12-07T11:14:52;94764.09;;;10.45;81.04
6132;BME280;3097;42.692;23.278;2022-12-07T11:20:45;94748.19;;;10.48;82.01
6132;BME280;3097;42.692;23.278;2022-12-07T11:23:16;94750.56;;;10.50;82.31
6132;BME280;3097;42.692;23.278;2022-12-07T11:36:57;94709.31;;;10.38;80.56
6132;BME280;3097;42.692;23.278;2022-12-07T11:39:26;94730.59;;;10.45;80.75
6132;BME280;3097;42.692;23.278;2022-12-07T11:42:10;94732.16;;;10.35;80.73
6132;BME280;3097;42.692;23.278;2022-12-07T11:47:40;94735.19;;;10.43;81.35
6132;BME280;3097;42.692;23.278;2022-12-07T11:50:39;94733.84;;;10.41;81.05
6132;BME280;3097;42.692;23.278;2022-12-07T11:55:57;94724.22;;;10.36;80.68
6132;BME280;3097;42.692;23.278;2022-12-07T12:03:47;94702.03;;;10.35;80.85
6132;BME280;3097;42.692;23.278;2022-12-07T12:06:13;94704.81;;;10.34;80.71
6132;BME280;3097;42.692;23.278;2022-12-07T12:14:23;94700.78;;;10.38;80.76
6132;BME280;3097;42.692;23.278;2022-12-07T12:17:16;94706.63;;;10.33;81.25
6132;BME280;3097;42.692;23.278;2022-12-07T12:20:03;94691.06;;;10.28;80.90
6132;BME280;3097;42.692;23.278;2022-12-07T12:24:59;94690.06;;;10.29;81.27
6132;BME280;3097;42.692;23.278;2022-12-07T12:27:30;94687.56;;;10.23;81.79
6132;BME280;3097;42.692;23.278;2022-12-07T12:29:59;94680.63;;;10.23;82.35
6132;BME280;3097;42.692;23.278;2022-12-07T12:32:40;94674.59;;;10.29;82.50
6132;BME280;3097;42.692;23.278;2022-12-07T12:37:54;94660.00;;;10.46;80.80
6132;BME280;3097;42.692;23.278;2022-12-07T12:42:49;94655.19;;;10.62;80.76
6132;BME280;3097;42.692;23.278;2022-12-07T12:45:23;94649.91;;;10.68;80.66
6132;BME280;3097;42.692;23.278;2022-12-07T12:54:11;94657.16;;;10.83;79.63
6132;BME280;3097;42.692;23.278;2022-12-07T12:57:09;94662.44;;;10.88;79.79
6132;BME280;3097;42.692;23.278;2022-12-07T13:02:26;94665.78;;;10.89;79.66
6132;BME280;3097;42.692;23.278;2022-12-07T13:15:51;94670.34;;;10.98;78.24
6132;BME280;3097;42.692;23.278;2022-12-07T13:26:51;94660.06;;;10.86;79.55
6132;BME280;3097;42.692;23.278;2022-12-07T13:31:54;94658.63;;;10.79;80.08
6132;BME280;3097;42.692;23.278;2022-12-07T13:34:46;94660.19;;;10.80;80.06
6132;BME280;3097;42.692;23.278;2022-12-07T13:37:25;94651.00;;;10.84;79.85
6132;BME280;3097;42.692;23.278;2022-12-07T13:39:58;94644.38;;;10.88;79.46
6132;BME280;3097;42.692;23.278;2022-12-07T13:44:53;94617.47;;;10.84;79.16
6132;BME280;3097;42.692;23.278;2022-12-07T13:47:41;94654.78;;;10.93;79.88
6132;BME280;3097;42.692;23.278;2022-12-07T13:50:29;94641.88;;;11.05;79.35
6132;BME280;3097;42.692;23.278;2022-12-07T13:52:56;94644.56;;;10.98;79.71
6132;BME280;3097;42.692;23.278;2022-12-07T13:55:22;94624.78;;;10.75;80.32
6132;BME280;3097;42.692;23.278;2022-12-07T13:57:51;94642.53;;;11.00;79.84
6132;BME280;3097;42.692;23.278;2022-12-07T14:00:19;94648.41;;;10.96;80.27
6132;BME280;3097;42.692;23.278;2022-12-07T14:05:37;94648.81;;;11.04;80.42
6132;BME280;3097;42.692;23.278;2022-12-07T14:08:22;94644.97;;;11.07;80.17
6132;BME280;3097;42.692;23.278;2022-12-07T14:15:58;94651.16;;;11.06;80.51
6132;BME280;3097;42.692;23.278;2022-12-07T14:18:27;94655.53;;;11.05;80.66
6132;BME280;3097;42.692;23.278;2022-12-07T14:21:27;94654.63;;;11.11;80.45
6132;BME280;3097;42.692;23.278;2022-12-07T14:24:15;94659.31;;;11.14;80.09
6132;BME280;3097;42.692;23.278;2022-12-07T14:26:43;94613.69;;;10.75;80.39
6132;BME280;3097;42.692;23.278;2022-12-07T14:29:38;94655.31;;;11.07;80.36
6132;BME280;3097;42.692;23.278;2022-12-07T14:32:22;94654.44;;;11.01;80.72
6132;BME280;3097;42.692;23.278;2022-12-07T14:34:54;94664.09;;;10.94;80.91
6132;BME280;3097;42.692;23.278;2022-12-07T14:37:20;94660.16;;;10.92;81.14
6132;BME280;3097;42.692;23.278;2022-12-07T14:39:46;94656.91;;;10.96;81.02
6132;BME280;3097;42.692;23.278;2022-12-07T14:42:11;94661.16;;;10.91;81.21
6132;BME280;3097;42.692;23.278;2022-12-07T14:44:36;94659.16;;;10.93;81.38
6132;BME280;3097;42.692;23.278;2022-12-07T14:47:02;94648.53;;;10.89;81.21
6132;BME280;3097;42.692;23.278;2022-12-07T14:49:27;94652.66;;;10.90;81.17
6132;BME280;3097;42.692;23.278;2022-12-07T14:51:53;94653.56;;;10.84;81.38
6132;BME280;3097;42.692;23.278;2022-12-07T14:54:20;94655.81;;;10.80;81.40
6132;BME280;3097;42.692;23.278;2022-12-07T14:56:46;94650.69;;;10.69;81.74
6132;BME280;3097;42.692;23.278;2022-12-07T14:59:15;94655.19;;;10.62;81.58
6132;BME280;3097;42.692;23.278;2022-12-07T15:01:41;94659.22;;;10.58;81.62
6132;BME280;3097;42.692;23.278;2022-12-07T15:04:07;94652.75;;;10.43;82.00
6132;BME280;3097;42.692;23.278;2022-12-07T15:06:32;94669.44;;;10.41;82.49
6132;BME280;3097;42.692;23.278;2022-12-07T15:08:58;94667.88;;;10.28;83.07
6132;BME280;3097;42.692;23.278;2022-12-07T15:11:23;94664.16;;;10.24;83.38
6132;BME280;3097;42.692;23.278;2022-12-07T15:13:49;94674.56;;;10.18;83.88
6132;BME280;3097;42.692;23.278;2022-12-07T15:16:33;94681.28;;;10.19;83.64
6132;BME280;3097;42.692;23.278;2022-12-07T15:18:58;94669.06;;;10.14;83.53
6132;BME280;3097;42.692;23.278;2022-12-07T15:21:24;94671.97;;;10.06;83.95
6132;BME280;3097;42.692;23.278;2022-12-07T15:23:49;94675.31;;;9.95;83.99
6132;BME280;3097;42.692;23.278;2022-12-07T15:26:15;94675.06;;;9.85;84.38
6132;BME280;3097;42.692;23.278;2022-12-07T15:28:41;94679.97;;;9.75;85.18
6132;BME280;3097;42.692;23.278;2022-12-07T15:31:13;94676.25;;;9.70;85.52
6132;BME280;3097;42.692;23.278;2022-12-07T15:33:39;94668.31;;;9.60;85.80
6132;BME280;3097;42.692;23.278;2022-12-07T15:36:05;94681.28;;;9.65;85.78
6132;BME280;3097;42.692;23.278;2022-12-07T15:38:31;94680.69;;;9.52;86.42